createdAt,value
2023-04-12T00:00:33.606Z,3.40
2023-04-12T00:03:03.320Z,3.30
2023-04-12T00:05:31.376Z,3.30
2023-04-12T00:08:00.976Z,3.40
2023-04-12T00:10:28.884Z,3.80
2023-04-12T00:12:56.756Z,3.30
2023-04-12T00:15:25.980Z,3.30
2023-04-12T00:17:53.897Z,4.80
2023-04-12T00:20:21.861Z,3.30
2023-04-12T00:22:49.744Z,5.10
2023-04-12T00:25:17.642Z,3.30
2023-04-12T00:27:45.580Z,3.30
2023-04-12T00:30:13.853Z,3.20
2023-04-12T00:32:43.174Z,3.50
2023-04-12T00:35:11.199Z,3.70
2023-04-12T00:37:39.184Z,3.30
2023-04-12T00:40:10.896Z,3.20
2023-04-12T00:42:39.014Z,3.20
2023-04-12T00:45:08.315Z,3.30
2023-04-12T00:47:37.618Z,3.20
2023-04-12T00:50:08.456Z,3.20
2023-04-12T00:52:37.558Z,3.30
2023-04-12T00:55:07.204Z,3.30
2023-04-12T00:57:37.518Z,3.30
2023-04-12T01:00:08.216Z,3.30
2023-04-12T01:02:39.362Z,3.30
2023-04-12T01:05:14.556Z,3.20
2023-04-12T01:07:51.540Z,3.40
2023-04-12T01:10:30.290Z,3.40
2023-04-12T01:13:07.323Z,3.50
2023-04-12T01:15:40.842Z,3.60
2023-04-12T01:18:14.755Z,3.60
2023-04-12T01:20:54.612Z,3.80
2023-04-12T01:23:44.645Z,3.70
2023-04-12T01:26:25.791Z,3.80
2023-04-12T01:28:56.432Z,4.50
2023-04-12T01:31:26.152Z,4.50
2023-04-12T01:33:55.950Z,5.10
2023-04-12T01:36:27.329Z,3.80
2023-04-12T01:38:55.933Z,3.90
2023-04-12T01:41:23.963Z,3.90
2023-04-12T01:43:51.824Z,3.90
2023-04-12T01:46:23.977Z,3.90
2023-04-12T01:48:53.550Z,3.60
2023-04-12T01:51:29.122Z,3.80
2023-04-12T01:54:00.953Z,3.80
2023-04-12T01:56:33.182Z,3.50
2023-04-12T01:59:03.287Z,3.90
2023-04-12T02:01:33.073Z,3.70
2023-04-12T02:04:04.488Z,3.90
2023-04-12T02:06:34.284Z,3.90
2023-04-12T02:09:04.577Z,4.90
2023-04-12T02:11:32.450Z,4.10
2023-04-12T02:14:00.328Z,3.70
2023-04-12T02:16:29.165Z,3.70
2023-04-12T02:19:02.282Z,4.20
2023-04-12T02:21:30.151Z,4.40
2023-04-12T02:23:58.274Z,4.70
2023-04-12T02:26:26.344Z,4.20
2023-04-12T02:28:54.221Z,4.70
2023-04-12T02:31:22.146Z,6.20
2023-04-12T02:33:50.066Z,4.70
2023-04-12T02:36:19.427Z,4.70
2023-04-12T02:38:50.727Z,5.00
2023-04-12T02:41:19.116Z,4.90
2023-04-12T02:43:47.047Z,6.00
2023-04-12T02:46:21.709Z,4.90
2023-04-12T02:48:50.076Z,6.50
2023-04-12T02:51:19.324Z,6.10
2023-04-12T02:53:47.182Z,5.20
2023-04-12T02:56:15.673Z,4.80
2023-04-12T02:58:43.576Z,5.70
2023-04-12T03:01:13.204Z,5.20
2023-04-12T03:03:41.900Z,5.80
2023-04-12T03:06:10.780Z,5.50
2023-04-12T03:08:40.029Z,5.60
2023-04-12T03:11:08.245Z,5.20
2023-04-12T03:13:36.085Z,5.70
2023-04-12T03:16:22.852Z,7.00
2023-04-12T03:18:51.683Z,6.00
2023-04-12T03:21:19.617Z,6.10
2023-04-12T03:23:48.851Z,6.00
2023-04-12T03:26:20.322Z,5.50
2023-04-12T03:28:48.377Z,7.20
2023-04-12T03:31:21.491Z,6.00
2023-04-12T03:33:49.835Z,6.00
2023-04-12T03:36:17.956Z,5.70
2023-04-12T03:38:46.063Z,7.10
2023-04-12T03:41:15.323Z,6.30
2023-04-12T03:43:43.186Z,6.00
2023-04-12T03:46:11.242Z,6.50
2023-04-12T03:48:39.133Z,6.40
2023-04-12T03:51:12.068Z,6.10
2023-04-12T03:53:39.985Z,6.10
2023-04-12T03:56:08.735Z,6.70
2023-04-12T03:58:37.991Z,6.20
2023-04-12T04:01:06.793Z,5.50
2023-04-12T04:03:35.770Z,6.10
2023-04-12T04:06:04.128Z,6.10
2023-04-12T04:08:32.988Z,6.10
2023-04-12T04:11:01.548Z,7.40
2023-04-12T04:13:29.527Z,6.10
2023-04-12T04:16:04.882Z,5.90
2023-04-12T04:18:32.997Z,6.00
2023-04-12T04:21:00.907Z,6.10
2023-04-12T04:23:29.141Z,7.10
2023-04-12T04:25:57.430Z,7.50
2023-04-12T04:28:25.277Z,7.70
2023-04-12T04:30:55.622Z,6.00
2023-04-12T04:33:24.906Z,5.60
2023-04-12T04:35:52.848Z,6.00
2023-04-12T04:38:25.523Z,6.10
2023-04-12T04:40:54.172Z,6.10
2023-04-12T04:43:22.427Z,6.10
2023-04-12T04:45:54.540Z,5.70
2023-04-12T04:48:24.020Z,6.10
2023-04-12T04:50:52.850Z,7.50
2023-04-12T04:53:22.995Z,6.00
2023-04-12T04:55:50.934Z,5.90
2023-04-12T04:58:18.838Z,6.10
2023-04-12T05:00:48.927Z,5.70
2023-04-12T05:03:16.955Z,6.10
2023-04-12T05:05:49.051Z,6.10
2023-04-12T05:08:16.948Z,6.10
2023-04-12T05:10:45.064Z,5.90
2023-04-12T05:13:13.003Z,7.70
2023-04-12T05:15:51.380Z,6.10
2023-04-12T05:18:19.342Z,6.20
2023-04-12T05:20:48.732Z,6.60
2023-04-12T05:23:17.378Z,8.00
2023-04-12T05:25:48.164Z,6.30
2023-04-12T05:28:17.315Z,7.50
2023-04-12T05:30:46.182Z,6.40
2023-04-12T05:33:14.055Z,6.40
2023-04-12T05:35:41.964Z,7.00
2023-04-12T05:38:11.272Z,6.50
2023-04-12T05:40:39.236Z,6.50
2023-04-12T05:43:07.099Z,7.50
2023-04-12T05:45:35.005Z,6.40
2023-04-12T05:48:05.975Z,7.00
2023-04-12T05:50:33.971Z,7.00
2023-04-12T05:53:02.356Z,7.10
2023-04-12T05:55:31.729Z,7.20
2023-04-12T05:58:02.567Z,7.30
2023-04-12T06:00:30.588Z,7.00
2023-04-12T06:03:03.838Z,7.60
2023-04-12T06:05:32.012Z,7.20
2023-04-12T06:08:00.993Z,8.60
2023-04-12T06:10:36.295Z,9.40
2023-04-12T06:13:05.540Z,8.00
2023-04-12T06:15:33.572Z,8.10
2023-04-12T06:18:01.642Z,8.10
2023-04-12T06:20:29.535Z,7.80
2023-04-12T06:22:57.404Z,8.30
2023-04-12T06:25:25.944Z,8.30
2023-04-12T06:27:53.830Z,8.40
2023-04-12T06:30:23.104Z,8.10
2023-04-12T06:32:51.179Z,8.50
2023-04-12T06:35:20.229Z,8.20
2023-04-12T06:37:48.243Z,8.70
2023-04-12T06:40:16.308Z,8.30
2023-04-12T06:42:46.100Z,8.90
2023-04-12T06:45:14.405Z,9.50
2023-04-12T06:47:43.634Z,10.70
2023-04-12T06:50:12.079Z,9.00
2023-04-12T06:52:40.176Z,9.10
2023-04-12T06:55:09.035Z,9.10
2023-04-12T06:57:36.993Z,9.10
2023-04-12T07:00:07.582Z,9.10
2023-04-12T07:02:35.710Z,9.10
2023-04-12T07:05:05.479Z,9.70
2023-04-12T07:07:33.624Z,9.30
2023-04-12T07:10:03.304Z,9.30
2023-04-12T07:12:31.468Z,9.40
2023-04-12T07:14:59.567Z,9.40
2023-04-12T07:17:29.629Z,9.50
2023-04-12T07:19:57.730Z,8.60
2023-04-12T07:22:27.101Z,10.60
2023-04-12T07:24:55.153Z,9.60
2023-04-12T07:27:23.707Z,10.40
2023-04-12T07:29:53.041Z,9.40
2023-04-12T07:32:21.212Z,9.30
2023-04-12T07:34:49.363Z,9.30
2023-04-12T07:37:17.868Z,9.30
2023-04-12T07:39:47.356Z,9.20
2023-04-12T07:42:15.652Z,10.60
2023-04-12T07:44:43.505Z,9.20
2023-04-12T07:47:11.703Z,9.20
2023-04-12T07:49:39.794Z,9.20
2023-04-12T07:52:07.707Z,9.10
2023-04-12T07:54:35.897Z,10.90
2023-04-12T07:57:05.468Z,10.80
2023-04-12T07:59:34.054Z,9.20
2023-04-12T08:02:07.143Z,9.30
2023-04-12T08:04:35.201Z,9.10
2023-04-12T08:07:05.796Z,9.50
2023-04-12T08:09:33.760Z,10.40
2023-04-12T08:12:01.600Z,9.10
2023-04-12T08:14:30.935Z,9.00
2023-04-12T08:16:58.976Z,9.00
2023-04-12T08:19:27.646Z,9.10
2023-04-12T08:21:55.666Z,9.10
2023-04-12T08:24:23.709Z,9.00
2023-04-12T08:26:51.884Z,9.90
2023-04-12T08:29:19.811Z,9.00
2023-04-12T08:31:49.163Z,9.00
2023-04-12T08:34:17.187Z,9.10
2023-04-12T08:36:45.055Z,9.10
2023-04-12T08:39:12.943Z,9.10
2023-04-12T08:41:41.044Z,9.10
2023-04-12T08:44:09.435Z,9.10
2023-04-12T08:46:37.767Z,9.00
2023-04-12T08:49:07.050Z,9.10
2023-04-12T08:51:36.191Z,9.00
2023-04-12T08:54:04.171Z,10.50
2023-04-12T08:56:33.286Z,9.20
2023-04-12T08:59:01.886Z,9.20
2023-04-12T09:01:30.214Z,9.20
2023-04-12T09:03:58.526Z,9.20
2023-04-12T09:06:28.534Z,9.10
2023-04-12T09:08:58.056Z,9.10
2023-04-12T09:11:27.822Z,9.10
2023-04-12T09:13:57.667Z,10.90
2023-04-12T09:16:36.865Z,9.10
2023-04-12T09:19:04.964Z,9.10
2023-04-12T09:21:36.481Z,8.50
2023-04-12T09:24:11.041Z,10.00
2023-04-12T09:26:41.371Z,9.20
2023-04-12T09:29:25.240Z,9.20
2023-04-12T09:31:57.703Z,9.30
2023-04-12T09:34:27.328Z,9.30
2023-04-12T09:36:57.697Z,9.30
2023-04-12T09:39:33.076Z,9.40
2023-04-12T09:42:18.123Z,9.40
2023-04-12T09:44:59.472Z,9.30
2023-04-12T09:47:38.837Z,9.40
2023-04-12T09:50:08.525Z,9.40
2023-04-12T09:52:40.889Z,9.50
2023-04-12T09:55:10.894Z,8.90
2023-04-12T09:57:41.467Z,9.80
2023-04-12T10:00:17.534Z,9.60
2023-04-12T10:02:47.691Z,10.20
2023-04-12T10:05:18.540Z,10.30
2023-04-12T10:07:48.581Z,10.50
2023-04-12T10:10:18.787Z,10.60
2023-04-12T10:12:48.689Z,11.00
2023-04-12T10:15:18.566Z,10.60
2023-04-12T10:17:48.479Z,11.30
2023-04-12T10:20:18.015Z,11.40
2023-04-12T10:22:49.141Z,10.30
2023-04-12T10:25:18.948Z,10.60
2023-04-12T10:27:47.860Z,10.60
2023-04-12T10:30:27.142Z,10.30
2023-04-12T10:33:17.916Z,10.40
2023-04-12T10:35:57.579Z,10.30
2023-04-12T10:38:32.446Z,10.10
2023-04-12T10:41:11.451Z,9.90
2023-04-12T10:43:39.557Z,10.00
2023-04-12T10:46:07.504Z,10.00
2023-04-12T10:48:36.750Z,10.20
2023-04-12T10:51:14.706Z,10.00
2023-04-12T10:53:43.998Z,12.30
2023-04-12T10:56:38.343Z,10.50
2023-04-12T10:59:07.233Z,11.00
2023-04-12T11:01:38.702Z,11.20
2023-04-12T11:04:15.422Z,10.70
2023-04-12T11:06:44.691Z,11.30
2023-04-12T11:09:27.596Z,11.40
2023-04-12T11:11:59.478Z,11.50
2023-04-12T11:14:31.438Z,11.50
2023-04-12T11:17:25.169Z,11.40
2023-04-12T11:19:59.374Z,11.60
2023-04-12T11:22:29.828Z,11.70
2023-04-12T11:25:01.362Z,13.80
2023-04-12T11:27:31.789Z,11.50
2023-04-12T11:30:01.231Z,11.90
2023-04-12T11:32:31.320Z,11.90
2023-04-12T11:34:59.952Z,12.00
2023-04-12T11:37:27.959Z,11.70
2023-04-12T11:40:00.044Z,11.70
2023-04-12T11:42:29.849Z,13.20
2023-04-12T11:45:03.165Z,11.80
2023-04-12T11:47:33.175Z,13.90
2023-04-12T11:50:01.104Z,13.00
2023-04-12T11:52:31.133Z,13.20
2023-04-12T11:55:04.683Z,12.30
2023-04-12T11:57:32.760Z,12.50
2023-04-12T12:00:02.001Z,14.30
2023-04-12T12:02:33.282Z,13.20
2023-04-12T12:05:06.877Z,12.60
2023-04-12T12:07:35.810Z,12.90
2023-04-12T12:10:06.026Z,13.50
2023-04-12T12:12:35.116Z,12.90
2023-04-12T12:15:03.491Z,14.60
2023-04-12T12:17:31.700Z,14.50
2023-04-12T12:20:01.438Z,12.70
2023-04-12T12:22:29.420Z,14.20
2023-04-12T12:24:58.920Z,13.90
2023-04-12T12:27:38.234Z,14.00
2023-04-12T12:30:10.040Z,12.90
2023-04-12T12:32:39.911Z,12.50
2023-04-12T12:35:10.801Z,12.80
2023-04-12T12:37:38.980Z,12.40
2023-04-12T12:40:11.252Z,13.70
2023-04-12T12:42:47.178Z,12.40
2023-04-12T12:45:15.532Z,13.50
2023-04-12T12:47:48.560Z,12.40
2023-04-12T12:50:17.649Z,12.30
2023-04-12T12:52:47.120Z,12.50
2023-04-12T12:55:15.907Z,13.00
2023-04-12T12:57:58.377Z,12.00
2023-04-12T13:00:34.404Z,13.40
2023-04-12T13:03:02.975Z,12.70
2023-04-12T13:05:31.388Z,13.00
2023-04-12T13:07:59.334Z,13.40
2023-04-12T13:10:35.536Z,12.20
2023-04-12T13:13:05.264Z,13.00
2023-04-12T13:15:33.255Z,13.20
2023-04-12T13:18:01.254Z,12.60
2023-04-12T13:20:29.513Z,12.60
2023-04-12T13:22:58.163Z,12.60
2023-04-12T13:25:26.332Z,12.80
2023-04-12T13:27:54.274Z,12.60
2023-04-12T13:30:23.649Z,13.40
2023-04-12T13:32:51.590Z,12.80
2023-04-12T13:35:19.521Z,12.90
2023-04-12T13:37:47.476Z,12.40
2023-04-12T13:40:15.521Z,13.10
2023-04-12T13:42:43.651Z,12.80
2023-04-12T13:45:12.485Z,13.50
2023-04-12T13:47:41.813Z,12.20
2023-04-12T13:50:10.689Z,14.50
2023-04-12T13:52:38.583Z,12.20
2023-04-12T13:55:08.261Z,12.40
2023-04-12T13:57:36.587Z,12.00
2023-04-12T14:00:05.045Z,12.50
2023-04-12T14:02:33.099Z,12.00
2023-04-12T14:05:02.633Z,13.80
2023-04-12T14:07:30.755Z,13.50
2023-04-12T14:09:58.679Z,13.10
2023-04-12T14:12:26.728Z,13.60
2023-04-12T14:14:54.637Z,11.90
2023-04-12T14:17:22.646Z,12.30
2023-04-12T14:19:51.004Z,12.10
2023-04-12T14:22:20.379Z,12.70
2023-04-12T14:24:48.651Z,12.30
2023-04-12T14:27:18.060Z,11.80
2023-04-12T14:29:46.550Z,12.30
2023-04-12T14:32:14.487Z,12.40
2023-04-12T14:34:43.332Z,14.10
2023-04-12T14:37:11.484Z,12.10
2023-04-12T14:39:40.823Z,14.00
2023-04-12T14:42:08.749Z,13.80
2023-04-12T14:44:36.724Z,12.90
2023-04-12T14:47:04.620Z,14.20
2023-04-12T14:49:33.451Z,13.30
2023-04-12T14:52:01.928Z,11.90
2023-04-12T14:54:29.916Z,11.90
2023-04-12T14:56:59.165Z,12.70
2023-04-12T14:59:28.134Z,12.00
2023-04-12T15:01:56.438Z,11.50
2023-04-12T15:04:24.502Z,11.70
2023-04-12T15:06:52.511Z,11.70
2023-04-12T15:09:21.000Z,13.20
2023-04-12T15:11:54.861Z,11.80
2023-04-12T15:14:24.463Z,12.10
2023-04-12T15:16:52.351Z,11.90
2023-04-12T15:19:23.321Z,12.70
2023-04-12T15:21:52.155Z,12.10
2023-04-12T15:24:20.740Z,13.90
2023-04-12T15:26:50.654Z,12.70
2023-04-12T15:29:19.761Z,13.90
2023-04-12T15:31:50.498Z,12.40
2023-04-12T15:34:18.558Z,12.60
2023-04-12T15:36:46.530Z,13.90
2023-04-12T15:39:15.010Z,12.60
2023-04-12T15:41:43.765Z,12.80
2023-04-12T15:44:13.208Z,12.80
2023-04-12T15:46:42.057Z,12.90
2023-04-12T15:49:11.845Z,13.60
2023-04-12T15:51:39.808Z,12.80
2023-04-12T15:54:07.738Z,13.80
2023-04-12T15:56:37.792Z,12.80
2023-04-12T15:59:05.886Z,12.80
2023-04-12T16:01:35.588Z,12.80
2023-04-12T16:04:05.246Z,13.10
2023-04-12T16:06:35.796Z,12.50
2023-04-12T16:09:04.918Z,12.70
2023-04-12T16:11:33.955Z,13.30
2023-04-12T16:14:01.932Z,12.70
2023-04-12T16:16:29.840Z,12.60
2023-04-12T16:18:59.913Z,13.30
2023-04-12T16:21:29.447Z,12.60
2023-04-12T16:23:59.410Z,12.60
2023-04-12T16:26:27.529Z,12.70
2023-04-12T16:28:55.649Z,12.50
2023-04-12T16:31:25.256Z,13.00
2023-04-12T16:33:53.458Z,12.30
2023-04-12T16:36:23.309Z,12.20
2023-04-12T16:38:54.400Z,12.00
2023-04-12T16:41:23.715Z,12.00
2023-04-12T16:43:53.663Z,12.00
2023-04-12T16:46:22.248Z,12.10
2023-04-12T16:48:50.259Z,12.70
2023-04-12T16:51:18.219Z,12.20
2023-04-12T16:53:46.339Z,12.00
2023-04-12T16:56:14.214Z,13.90
2023-04-12T16:58:43.472Z,12.10
2023-04-12T17:01:16.273Z,13.00
2023-04-12T17:03:44.927Z,13.10
2023-04-12T17:06:13.040Z,12.80
2023-04-12T17:08:40.924Z,12.30
2023-04-12T17:11:09.027Z,11.60
2023-04-12T17:13:37.522Z,11.20
2023-04-12T17:16:07.697Z,11.10
2023-04-12T17:18:36.831Z,10.70
2023-04-12T17:21:07.109Z,10.40
2023-04-12T17:23:36.591Z,10.10
2023-04-12T17:26:05.794Z,9.70
2023-04-12T17:28:35.083Z,9.50
2023-04-12T17:31:03.049Z,9.40
2023-04-12T17:33:32.274Z,9.50
2023-04-12T17:36:01.849Z,8.70
2023-04-12T17:38:29.794Z,9.90
2023-04-12T17:40:57.908Z,9.90
2023-04-12T17:43:26.200Z,8.80
2023-04-12T17:45:54.107Z,8.70
2023-04-12T17:48:22.028Z,8.90
2023-04-12T17:50:51.285Z,8.50
2023-04-12T17:53:19.209Z,8.80
2023-04-12T17:55:48.403Z,8.60
2023-04-12T17:58:18.896Z,8.30
2023-04-12T18:00:47.135Z,7.90
2023-04-12T18:03:15.608Z,8.10
2023-04-12T18:05:46.123Z,8.00
2023-04-12T18:08:16.554Z,7.80
2023-04-12T18:10:45.486Z,8.00
2023-04-12T18:13:13.387Z,7.80
2023-04-12T18:15:41.370Z,8.20
2023-04-12T18:18:09.384Z,7.70
2023-04-12T18:20:37.327Z,7.60
2023-04-12T18:23:05.371Z,7.60
2023-04-12T18:25:34.701Z,7.90
2023-04-12T18:28:02.764Z,7.50
2023-04-12T18:30:31.236Z,8.10
2023-04-12T18:33:00.948Z,7.60
2023-04-12T18:35:30.095Z,7.90
2023-04-12T18:37:57.979Z,7.60
2023-04-12T18:40:25.914Z,7.30
2023-04-12T18:42:55.249Z,7.70
2023-04-12T18:45:23.914Z,8.80
2023-04-12T18:47:52.900Z,7.40
2023-04-12T18:50:20.939Z,7.90
2023-04-12T18:52:48.851Z,7.30
2023-04-12T18:55:16.986Z,7.20
2023-04-12T18:57:46.031Z,7.10
2023-04-12T19:00:17.127Z,7.00
2023-04-12T19:02:45.045Z,7.00
2023-04-12T19:05:14.767Z,6.70
2023-04-12T19:07:42.928Z,7.20
2023-04-12T19:10:12.485Z,8.30
2023-04-12T19:12:40.557Z,6.60
2023-04-12T19:15:09.767Z,6.40
2023-04-12T19:17:40.122Z,6.40
2023-04-12T19:20:09.114Z,6.90
2023-04-12T19:22:37.109Z,6.20
2023-04-12T19:25:05.403Z,6.60
2023-04-12T19:27:33.313Z,6.10
2023-04-12T19:30:01.203Z,6.00
2023-04-12T19:32:29.493Z,5.90
2023-04-12T19:34:58.773Z,6.10
2023-04-12T19:37:28.331Z,5.90
2023-04-12T19:39:56.232Z,6.80
2023-04-12T19:42:24.127Z,6.00
2023-04-12T19:44:52.538Z,5.50
2023-04-12T19:47:20.435Z,5.30
2023-04-12T19:49:49.058Z,5.90
2023-04-12T19:52:20.163Z,5.30
2023-04-12T19:54:48.085Z,5.80
2023-04-12T19:57:16.026Z,5.80
2023-04-12T19:59:43.912Z,6.20
2023-04-12T20:02:12.239Z,7.10
2023-04-12T20:04:40.879Z,4.90
2023-04-12T20:07:09.212Z,4.90
2023-04-12T20:09:38.560Z,5.10
2023-04-12T20:12:07.203Z,5.50
2023-04-12T20:14:36.841Z,5.00
2023-04-12T20:17:05.838Z,5.50
2023-04-12T20:19:33.796Z,6.30
2023-04-12T20:22:03.690Z,5.20
2023-04-12T20:24:34.193Z,6.00
2023-04-12T20:27:03.652Z,5.00
2023-04-12T20:29:33.320Z,4.80
2023-04-12T20:32:02.164Z,5.80
2023-04-12T20:34:30.019Z,6.00
2023-04-12T20:36:59.816Z,5.10
2023-04-12T20:39:29.445Z,4.70
2023-04-12T20:42:01.025Z,4.90
2023-04-12T20:44:30.586Z,5.40
2023-04-12T20:46:58.745Z,5.80
2023-04-12T20:49:27.737Z,5.00
2023-04-12T20:51:56.781Z,5.10
2023-04-12T20:54:25.232Z,5.00
2023-04-12T20:56:53.369Z,5.80
2023-04-12T20:59:22.694Z,6.30
2023-04-12T21:01:53.266Z,5.50
2023-04-12T21:04:22.395Z,6.90
2023-04-12T21:06:55.239Z,6.30
2023-04-12T21:09:23.910Z,5.30
2023-04-12T21:11:52.404Z,5.90
2023-04-12T21:14:20.848Z,7.00
2023-04-12T21:16:49.594Z,7.20
2023-04-12T21:19:18.966Z,5.30
2023-04-12T21:21:47.502Z,5.80
2023-04-12T21:24:15.429Z,5.20
2023-04-12T21:26:43.595Z,5.10
2023-04-12T21:29:11.515Z,6.00
2023-04-12T21:31:41.583Z,5.80
2023-04-12T21:34:10.126Z,5.20
2023-04-12T21:36:39.841Z,5.30
2023-04-12T21:39:07.722Z,5.20
2023-04-12T21:41:37.336Z,6.00
2023-04-12T21:44:05.239Z,5.30
2023-04-12T21:46:33.152Z,5.30
2023-04-12T21:49:01.162Z,5.00
2023-04-12T21:51:29.141Z,5.20
2023-04-12T21:53:58.411Z,5.20
2023-04-12T21:56:26.288Z,5.10
2023-04-12T21:58:57.126Z,6.20
2023-04-12T22:01:25.274Z,5.10
2023-04-12T22:03:53.914Z,5.20
2023-04-12T22:06:22.214Z,5.00
2023-04-12T22:08:50.087Z,5.00
2023-04-12T22:11:19.442Z,6.10
2023-04-12T22:13:47.400Z,5.30
2023-04-12T22:16:16.643Z,6.10
2023-04-12T22:18:45.524Z,5.70
2023-04-12T22:21:14.050Z,4.70
2023-04-12T22:23:42.217Z,6.10
2023-04-12T22:26:11.185Z,5.60
2023-04-12T22:28:42.509Z,4.60
2023-04-12T22:31:15.898Z,6.30
2023-04-12T22:33:47.720Z,4.50
2023-04-12T22:36:15.633Z,4.40
2023-04-12T22:38:43.516Z,4.40
2023-04-12T22:41:11.446Z,5.20
2023-04-12T22:43:42.452Z,6.10
2023-04-12T22:46:15.725Z,4.20
2023-04-12T22:48:44.233Z,4.10
2023-04-12T22:51:12.642Z,4.70
2023-04-12T22:53:40.941Z,4.20
2023-04-12T22:56:09.360Z,4.90
2023-04-12T22:58:37.590Z,4.50
2023-04-12T23:01:07.943Z,4.20
2023-04-12T23:03:36.534Z,4.50
2023-04-12T23:06:05.102Z,5.10
2023-04-12T23:08:34.104Z,4.50
2023-04-12T23:11:03.127Z,5.70
2023-04-12T23:13:33.758Z,4.20
2023-04-12T23:16:01.796Z,3.90
2023-04-12T23:18:31.120Z,4.10
2023-04-12T23:21:00.115Z,4.60
2023-04-12T23:23:28.003Z,4.10
2023-04-12T23:25:56.076Z,4.20
2023-04-12T23:28:26.409Z,4.30
2023-04-12T23:30:54.332Z,4.20
2023-04-12T23:33:25.070Z,4.00
2023-04-12T23:35:55.978Z,3.90
2023-04-12T23:38:31.917Z,3.80
2023-04-12T23:41:00.655Z,6.40
2023-04-12T23:43:29.205Z,3.50
2023-04-12T23:45:57.554Z,3.80
2023-04-12T23:48:25.934Z,5.60
2023-04-12T23:50:55.156Z,4.00
2023-04-12T23:53:23.363Z,3.80
2023-04-12T23:55:53.196Z,5.30
2023-04-12T23:58:21.776Z,3.80
